x

Buoy A01 - Mass. Bay/stellwagen (44029) Wave Buoy

5:04 - Thu 23rd Feb 2017 All times are EST. -5 hours from GMT.

  • Sig Wave height 4.9ft
  • Peak Period 10s
  • Wind
    13mph, 16mph gusts
  • Sea Temp 41°f
  • Aire Temp 46°f
  • Sea Pressure 1005.8mb
  • Buoy A01 - Mass. Bay/stellwagen
  • Buoy A01 - Mass. Bay/stellwagen

More Historic Weather Station data

Upgrade to MSW Pro to gain access to the past 30 days of data for over 8000 Wavebouys and Weather Stations around the globe.

Join Pro

Comparision Forecast

View Surf forecast
   
jue 02/23 5:04 5ft 10s 13 16 mph 1005.8mb 41f 46f
4:04 4ft 10s 18 20 mph 1005.2mb 42f 47f
3:04 4ft 9s 11 13 mph 1006mb 42f 48f
2:04 4ft 10s 13 16 mph 1006.6mb 42f 46f
1:04 4ft 10s 9 11 mph 1007.3mb 41f 45f
12:04 3.5ft 10s 11 13 mph 1008.3mb 41f 44f
11:04 4ft 11s 11 13 mph 1009.2mb 41f 42f
10:04 3.5ft 10s 11
mph
1010mb 41f 42f
9:04 3.5ft 10s 11
mph
1010.4mb 41f 42f
8:04 3.5ft 10s 11
mph
1010.3mb 41f 42f
7:04 3.5ft 10s 9
mph
1010.1mb 41f 42f
6:04  -   -  4 7 mph 1010.3mb 41f 42f
5:04  -   -  9
mph
1010mb 41f 42f
mié 02/22 5:04 3.5ft 8s 16 18 mph 1015.4mb 41f 40f
4:04 3.5ft 4s 16 18 mph 1016.2mb 41f 40f
3:04 3.5ft 4s 18 20 mph 1016.2mb 41f 39f
2:04 3.5ft 8s 18 20 mph 1016.9mb 41f 39f
1:04 2.5ft 7s 16 20 mph 1017.8mb 41f 39f
12:04 4ft 4s 16 20 mph 1018.6mb 41f 39f
mar 02/21 11:04 4ft 4s 18 22 mph 1019.1mb 41f 39f
10:04 4.5ft 4s 18 20 mph 1019.6mb 41f 39f
9:04 4.5ft 4s 18 20 mph 1020.5mb 41f 39f
8:04 3.5ft 4s 20 22 mph 1020.6mb 41f 40f
7:04 3.5ft 6s 20 22 mph 1021.5mb 41f 39f
6:04 3.5ft 6s 16 18 mph 1021.9mb 41f 39f
5:04 3.5ft 6s 13 16 mph 1022.4mb 41f 38f
4:04 4ft 6s 11 13 mph 1023mb 41f 38f
3:04 4ft 7s 9 11 mph 1023.8mb 40f 37f
2:04 3.5ft 6s 7 9 mph 1024.4mb 41f 38f
1:04 3.5ft 6s 4 7 mph 1025.4mb 40f 37f
12:04 3ft 7s 4 7 mph 1026.2mb 40f 37f
11:04 3.5ft 6s 7 9 mph 1026.8mb 40f 37f
10:04 3ft 6s 7 9 mph 1027.3mb 40f 37f
9:04 3.5ft 6s 9 11 mph 1027.6mb 40f 38f
8:04 3ft 6s 7 9 mph 1027.8mb 40f 38f
7:04 3ft 6s 9 13 mph 1027.4mb 40f 38f
6:04 3ft 5s 11 13 mph 1026.8mb 40f 37f
5:04 3.5ft 6s 11 13 mph 1026.8mb 40f 37f
4:04 4.5ft 6s 11 13 mph 1027mb 40f 38f
3:04 4.5ft 6s 13 18 mph 1026.8mb 40f 38f
2:04 3.5ft 6s 16 18 mph 1026.7mb 40f 37f
1:04 3.5ft 6s 16 18 mph 1027.3mb 40f 36f
12:04 3.5ft 5s 16 20 mph 1026.8mb 40f 38f
lun 02/20 11:04 3ft 5s 18 20 mph 1026.3mb 40f 39f
10:04 3ft 5s 20 22 mph 1025.8mb 40f 39f
9:04 2.5ft 5s 20 25 mph 1025.2mb 40f 40f
8:04 3.5ft 5s 13 18 mph 1024.8mb 40f 40f
7:04 3.5ft 5s 16 18 mph 1024.2mb 40f 41f
6:04 3ft 5s 11 13 mph 1023.5mb 40f 41f
5:04 2.5ft 5s 7 9 mph 1022mb 40f 40f
4:04 3.5ft 6s 11
mph
1021.3mb 40f 40f
3:04 3.5ft 5s 11 13 mph 1020.9mb 40f 39f
2:04 3.5ft 6s 11 13 mph 1020mb 40f 38f
1:04 4.5ft 6s 13 16 mph 1020mb 40f 38f
12:04 3.5ft 6s 16 18 mph 1020.1mb 40f 37f
11:04 4.5ft 6s 18 20 mph 1020.1mb 40f 37f
10:04 4.5ft 6s 18 20 mph 1019.7mb 40f 38f
9:04 2.5ft 5s 16 18 mph 1019.2mb 40f 39f
8:04 1.6ft 4s 13 16 mph 1018.4mb 40f 40f
7:04 1.3ft 8s 13 16 mph 1017.2mb 40f 40f
6:04 1.6ft 3s 13 18 mph 1015.6mb 40f 41f
5:04 1.3ft 3s 16 20 mph 1014.5mb 40f 42f
4:04 2.5ft 3s 16 20 mph 1013.6mb 40f 43f
3:04 2ft 3s 20 25 mph 1012.7mb 40f 44f
2:04 1.3ft 8s 13 16 mph 1012.3mb 40f 45f
1:04 1ft 6s 16 18 mph 1011.8mb 40f 46f
12:04 1ft 8s 9 11 mph 1011.5mb 40f 45f